Time;durP1;ratioP1;P1;durP2;ratioP2;P2;SDS_P1;SDS_P2;PMS_P1;PMS_P2;Temp;Humidity;BMP_temperature;BMP_pressure;BME280_temperature;BME280_humidity;BME280_pressure;Samples;Min_cycle;Max_cycle;Signal;HPM_P1;HPM_P2
2023/10/01 00:03:32;;;;;;;8.52;6.30;;;;;;;14.11;71.06;101260.34;10136636;29;20051;-78
2023/10/01 00:08:35;;;;;;;12.13;6.80;;;;;;;14.09;71.34;101257.75;10136503;29;20071;-78
2023/10/01 00:13:39;;;;;;;11.02;6.53;;;;;;;13.99;71.37;101264.91;10136026;29;20044;-76
2023/10/01 00:18:42;;;;;;;11.77;6.30;;;;;;;13.91;71.55;101259.28;10133207;29;20059;-77
2023/10/01 00:23:46;;;;;;;12.82;6.72;;;;;;;13.89;71.05;101255.84;10127385;29;20079;-77
2023/10/01 00:28:50;;;;;;;10.52;6.72;;;;;;;13.99;70.82;101266.72;10125899;29;20048;-77
2023/10/01 00:33:53;;;;;;;12.93;6.30;;;;;;;13.93;70.57;101276.19;10131033;29;20099;-77
2023/10/01 00:38:56;;;;;;;12.65;6.05;;;;;;;14.02;70.15;101266.50;10126590;29;20048;-77
2023/10/01 00:44:01;;;;;;;12.18;5.30;;;;;;;13.94;70.60;101251.78;10130911;29;20229;-77
2023/10/01 00:49:06;;;;;;;12.90;5.47;;;;;;;13.79;70.93;101250.31;10121998;29;20917;-77
2023/10/01 00:54:10;;;;;;;12.27;5.68;;;;;;;13.91;70.98;101233.13;10130896;29;20044;-77
2023/10/01 00:59:14;;;;;;;8.30;5.40;;;;;;;13.81;71.19;101248.34;10127787;29;20471;-77
2023/10/01 01:04:22;;;;;;;10.25;5.18;;;;;;;13.75;71.17;101248.84;10129797;29;20056;-76
2023/10/01 01:09:28;;;;;;;12.60;5.38;;;;;;;13.73;71.88;101268.88;10129314;29;20107;-77
2023/10/01 01:14:33;;;;;;;8.48;5.20;;;;;;;13.79;71.43;101271.91;10118854;29;20462;-77
2023/10/01 01:19:36;;;;;;;9.60;4.80;;;;;;;13.83;71.06;101259.91;10117845;29;20052;-77
2023/10/01 01:24:41;;;;;;;9.82;4.85;;;;;;;13.80;70.78;101268.25;10128099;29;20055;-77
2023/10/01 01:29:44;;;;;;;10.13;5.85;;;;;;;13.83;70.45;101229.34;10131487;29;20048;-77
2023/10/01 01:34:47;;;;;;;9.40;5.30;;;;;;;13.75;70.57;101231.81;10124759;29;20052;-77
2023/10/01 01:39:54;;;;;;;12.23;5.82;;;;;;;13.89;70.38;101223.44;10128660;29;20074;-77
2023/10/01 01:50:19;;;;;;;10.98;5.03;;;;;;;13.84;70.23;101225.66;10144598;29;21074;-77
2023/10/01 01:55:26;;;;;;;11.93;4.55;;;;;;;13.92;70.37;101229.44;10127976;29;21169;-77
2023/10/01 02:00:31;;;;;;;8.93;4.70;;;;;;;13.94;70.63;101221.22;10128196;29;20793;-77
2023/10/01 02:05:34;;;;;;;9.52;4.88;;;;;;;14.02;70.10;101213.34;10129137;29;20170;-77
2023/10/01 02:10:45;;;;;;;9.63;5.30;;;;;;;14.02;70.06;101213.34;10124819;29;20063;-77
2023/10/01 02:15:50;;;;;;;10.43;5.22;;;;;;;14.02;70.08;101218.75;10119898;29;20067;-78
2023/10/01 02:20:56;;;;;;;8.02;5.45;;;;;;;14.01;70.08;101208.03;10134395;29;20063;-77
2023/10/01 02:26:01;;;;;;;10.27;5.50;;;;;;;14.08;69.51;101207.41;10135826;29;20054;-78
2023/10/01 02:31:08;;;;;;;9.45;4.38;;;;;;;14.18;69.69;101206.63;10132263;29;20083;-77
2023/10/01 02:36:12;;;;;;;10.30;5.30;;;;;;;14.21;70.14;101211.81;10145823;29;20054;-77
2023/10/01 02:41:25;;;;;;;8.32;5.13;;;;;;;14.23;70.09;101201.72;10132811;29;20055;-77
2023/10/01 02:46:28;;;;;;;12.50;5.63;;;;;;;14.22;70.26;101194.59;10133603;29;20724;-78
2023/10/01 02:51:37;;;;;;;7.53;4.88;;;;;;;14.16;70.58;101195.97;10137223;29;20044;-77
2023/10/01 02:56:52;;;;;;;8.77;5.20;;;;;;;14.16;69.69;101187.88;10140007;29;20051;-77
2023/10/01 03:01:55;;;;;;;9.23;5.00;;;;;;;14.19;69.87;101194.88;10140044;29;20063;-78
2023/10/01 03:07:04;;;;;;;9.63;4.97;;;;;;;14.13;70.60;101196.25;10135865;29;20143;-78
2023/10/01 03:12:27;;;;;;;9.30;5.80;;;;;;;14.11;70.63;101201.75;10135385;29;20040;-77
2023/10/01 03:17:38;;;;;;;9.50;5.97;;;;;;;14.00;72.48;101206.34;10136583;29;20060;-77
2023/10/01 03:22:51;;;;;;;9.02;6.10;;;;;;;14.01;71.65;101195.41;10144972;29;20059;-78
2023/10/01 03:27:58;;;;;;;13.10;5.32;;;;;;;13.97;71.47;101193.94;10150244;29;20051;-78
2023/10/01 03:33:07;;;;;;;9.85;5.10;;;;;;;13.93;71.87;101198.75;10137431;29;20076;-78
2023/10/01 03:38:10;;;;;;;9.10;4.68;;;;;;;13.94;71.99;101207.72;10134107;29;20050;-76
2023/10/01 03:43:18;;;;;;;8.23;5.53;;;;;;;13.98;72.14;101205.59;10131785;29;20480;-76
2023/10/01 03:48:21;;;;;;;12.90;5.32;;;;;;;13.81;72.51;101204.28;10129475;29;20769;-76
2023/10/01 03:53:25;;;;;;;10.75;5.28;;;;;;;13.80;72.69;101206.13;10132348;29;20072;-77
2023/10/01 03:58:36;;;;;;;12.52;5.40;;;;;;;13.84;72.98;101207.59;10130557;29;20056;-76
2023/10/01 04:03:42;;;;;;;9.95;5.03;;;;;;;13.88;72.82;101209.06;10130922;29;20052;-76
2023/10/01 04:08:47;;;;;;;11.55;5.38;;;;;;;13.78;72.86;101205.41;10131022;29;20096;-76
2023/10/01 04:14:08;;;;;;;11.50;4.95;;;;;;;13.85;72.53;101213.84;10144432;29;20052;-77
2023/10/01 04:19:11;;;;;;;10.02;5.57;;;;;;;13.78;72.64;101202.69;10145060;29;20079;-78
2023/10/01 04:24:16;;;;;;;8.77;5.50;;;;;;;13.76;72.57;101185.75;10161240;29;20116;-77
2023/10/01 04:29:20;;;;;;;8.57;5.50;;;;;;;13.74;73.33;101193.16;10145228;29;20583;-78
2023/10/01 04:34:23;;;;;;;10.98;4.95;;;;;;;13.79;72.92;101193.59;10149549;29;20067;-77
2023/10/01 04:39:27;;;;;;;11.88;6.13;;;;;;;13.74;73.10;101182.34;10141166;29;20163;-78
2023/10/01 04:44:35;;;;;;;10.80;5.05;;;;;;;13.78;73.19;101170.28;10153908;29;20056;-78
2023/10/01 04:49:42;;;;;;;11.45;5.43;;;;;;;13.74;73.02;101178.75;10154240;29;20048;-78
2023/10/01 04:54:49;;;;;;;11.38;5.03;;;;;;;13.76;73.16;101168.72;10138854;29;20083;-78
2023/10/01 04:59:57;;;;;;;7.15;5.30;;;;;;;13.78;72.86;101173.00;10136733;29;20044;-78
2023/10/01 05:05:10;;;;;;;12.57;5.13;;;;;;;13.75;73.41;101164.31;10135171;29;20075;-78
2023/10/01 05:10:14;;;;;;;;;;;;;;;13.69;73.54;101180.00;10128384;29;20056;-78
2023/10/01 05:15:24;;;;;;;11.50;5.03;;;;;;;13.84;73.19;101179.72;10134847;29;21147;-78
2023/10/01 05:20:28;;;;;;;13.02;5.82;;;;;;;13.81;73.33;101185.38;10133300;29;20055;-78
2023/10/01 05:25:31;;;;;;;12.98;5.93;;;;;;;13.91;72.81;101184.50;10134166;29;20052;-78
2023/10/01 05:30:38;;;;;;;10.93;5.40;;;;;;;14.03;72.55;101197.97;10134051;29;20409;-78
2023/10/01 05:35:44;;;;;;;10.30;5.18;;;;;;;13.93;73.10;101205.97;10135567;29;20103;-78
2023/10/01 05:40:52;;;;;;;8.20;5.07;;;;;;;13.86;73.75;101205.63;10120545;29;20141;-78
2023/10/01 05:46:01;;;;;;;9.25;5.25;;;;;;;14.13;72.56;101212.44;10134137;29;20060;-78
2023/10/01 05:51:06;;;;;;;9.95;5.43;;;;;;;14.19;72.30;101209.22;10133796;29;20135;-78
2023/10/01 05:56:11;;;;;;;10.93;5.50;;;;;;;14.12;72.47;101213.41;10136682;29;20194;-78
2023/10/01 06:01:16;;;;;;;9.10;5.35;;;;;;;14.20;72.47;101216.34;10134483;29;20128;-78
2023/10/01 06:06:25;;;;;;;7.68;5.30;;;;;;;14.12;72.80;101222.41;10134190;29;20052;-77
2023/10/01 06:11:48;;;;;;;10.20;5.72;;;;;;;14.11;73.10;101219.81;10132207;29;20040;-78
2023/10/01 06:16:52;;;;;;;10.82;5.00;;;;;;;14.13;72.12;101215.16;10135805;29;20048;-79
2023/10/01 06:22:12;;;;;;;9.15;4.65;;;;;;;14.03;72.78;101220.44;10136851;29;20135;-79
2023/10/01 06:27:18;;;;;;;7.97;5.05;;;;;;;14.15;72.16;101221.25;10143958;29;20127;-79
2023/10/01 06:32:26;;;;;;;12.50;4.97;;;;;;;14.04;72.63;101226.69;10140038;29;20147;-79
2023/10/01 06:37:45;;;;;;;8.45;4.78;;;;;;;14.16;71.67;101220.31;10146320;29;20067;-79
2023/10/01 06:42:48;;;;;;;13.43;5.60;;;;;;;14.13;71.92;101223.25;10137426;29;20076;-78
2023/10/01 06:47:53;;;;;;;9.80;4.47;;;;;;;14.07;71.96;101227.31;10138463;29;20059;-77
2023/10/01 06:53:00;;;;;;;8.75;4.43;;;;;;;14.26;71.83;101221.25;10136437;29;20196;-77
2023/10/01 06:58:06;;;;;;;9.07;4.90;;;;;;;14.18;72.53;101215.63;10135378;29;20088;-77
2023/10/01 07:03:21;;;;;;;10.82;5.13;;;;;;;14.72;70.68;101211.13;10143564;28;20127;-78
2023/10/01 07:08:37;;;;;;;6.68;4.45;;;;;;;14.98;69.14;101215.16;10143215;28;20774;-77
2023/10/01 07:13:41;;;;;;;6.90;4.03;;;;;;;14.85;68.30;101217.19;10149576;28;20054;-77
2023/10/01 07:18:45;;;;;;;8.45;4.60;;;;;;;14.70;70.10;101213.09;10141609;28;20048;-77
2023/10/01 07:23:49;;;;;;;9.82;4.50;;;;;;;14.76;69.92;101210.72;10151343;28;21185;-79
2023/10/01 07:28:56;;;;;;;5.78;4.40;;;;;;;14.66;70.09;101214.34;10137677;28;21564;-77
2023/10/01 07:34:12;;;;;;;8.35;4.35;;;;;;;14.99;68.78;101211.44;10133894;29;20443;-77
2023/10/01 07:39:16;;;;;;;7.43;4.30;;;;;;;15.65;67.03;101211.06;10146812;29;20048;-78
2023/10/01 07:44:19;;;;;;;8.40;4.93;;;;;;;15.74;65.00;101216.66;10157508;28;20048;-77
2023/10/01 07:49:25;;;;;;;6.68;4.57;;;;;;;15.67;66.53;101217.22;10172400;29;20147;-78
2023/10/01 07:54:30;;;;;;;9.73;5.10;;;;;;;15.42;66.60;101221.25;10168815;29;20135;-78
2023/10/01 07:59:34;;;;;;;7.88;4.40;;;;;;;15.42;67.43;101217.69;10148606;29;20056;-78
2023/10/01 08:10:04;;;;;;;10.67;4.87;;;;;;;15.86;66.95;101229.09;10143577;29;20059;-78
2023/10/01 08:15:29;;;;;;;8.30;4.72;;;;;;;16.23;66.39;101223.03;10167831;28;20388;-79
2023/10/01 08:20:34;;;;;;;10.02;4.57;;;;;;;16.36;65.35;101227.22;10157850;28;21273;-78
2023/10/01 08:25:42;;;;;;;7.38;5.00;;;;;;;16.45;64.55;101219.22;10156391;28;20055;-78
2023/10/01 08:30:45;;;;;;;8.85;4.75;;;;;;;16.42;64.96;101211.38;10145730;29;20063;-79
2023/10/01 08:35:56;;;;;;;9.80;4.80;;;;;;;16.48;64.87;101217.09;10152611;28;20055;-77
2023/10/01 08:41:02;;;;;;;10.00;5.22;;;;;;;16.53;65.48;101219.38;10134130;29;21118;-78
2023/10/01 08:46:18;;;;;;;11.60;5.60;;;;;;;17.00;63.55;101219.44;10148643;28;20519;-79
2023/10/01 08:51:23;;;;;;;9.45;5.07;;;;;;;17.07;63.70;101225.16;10160115;29;20076;-79
2023/10/01 08:56:33;;;;;;;10.70;5.00;;;;;;;17.08;63.63;101229.56;10154830;29;20058;-79
2023/10/01 09:01:37;;;;;;;10.07;4.95;;;;;;;17.07;64.59;101227.88;10157106;28;20052;-77
2023/10/01 09:06:58;;;;;;;11.63;5.63;;;;;;;17.42;63.77;101219.94;10185597;28;20048;-78
2023/10/01 09:12:18;;;;;;;13.73;5.67;;;;;;;17.64;62.53;101213.25;10164025;29;20052;-79
2023/10/01 09:17:25;;;;;;;11.70;4.97;;;;;;;17.51;63.47;101229.03;10163760;29;20539;-79
2023/10/01 09:22:42;;;;;;;11.32;5.50;;;;;;;18.24;61.44;101223.66;10165176;28;20051;-78
2023/10/01 09:27:59;;;;;;;13.27;5.30;;;;;;;17.95;62.33;101206.66;10164328;28;20055;-79
2023/10/01 09:33:06;;;;;;;13.77;6.13;;;;;;;17.50;63.50;101221.03;10184777;28;20055;-78
2023/10/01 09:38:19;;;;;;;15.10;6.05;;;;;;;17.91;62.58;101211.56;10166212;29;20059;-79
2023/10/01 09:43:27;;;;;;;15.38;5.72;;;;;;;18.18;61.48;101226.97;10158455;28;20058;-79
2023/10/01 09:48:36;;;;;;;17.63;6.38;;;;;;;18.17;61.95;101225.28;10157608;29;20107;-79
2023/10/01 09:53:48;;;;;;;13.23;5.72;;;;;;;17.81;63.04;101230.63;10157718;28;20052;-79
2023/10/01 09:58:57;;;;;;;12.82;5.88;;;;;;;18.13;62.08;101221.19;10155824;28;20060;-78
2023/10/01 10:04:03;;;;;;;14.23;5.90;;;;;;;18.38;61.87;101213.25;10158965;29;20135;-79
2023/10/01 10:09:10;;;;;;;16.30;6.13;;;;;;;18.10;63.76;101213.28;10141257;29;20059;-78
2023/10/01 10:14:33;;;;;;;11.90;6.18;;;;;;;;;;10145949;29;20548;-78
2023/10/01 10:20:15;;;;;;;13.40;5.72;;;;;;;18.43;62.13;101210.91;10149137;28;20187;-78
2023/10/01 10:25:34;;;;;;;12.90;5.50;;;;;;;18.20;62.55;101194.22;10162056;28;20060;-79
2023/10/01 10:30:41;;;;;;;12.13;5.85;;;;;;;18.35;63.28;101193.53;10151019;28;20040;-79
2023/10/01 10:35:48;;;;;;;17.50;6.35;;;;;;;18.48;62.69;101190.38;10148110;29;20051;-79
2023/10/01 10:41:07;;;;;;;12.32;6.10;;;;;;;19.05;62.32;101187.28;10150252;29;20048;-79
2023/10/01 10:46:10;;;;;;;18.85;6.03;;;;;;;18.63;61.96;101196.13;10160761;29;20502;-78
2023/10/01 10:51:43;;;;;;;13.25;5.93;;;;;;;19.66;60.40;101177.22;10150331;29;20103;-79
2023/10/01 10:56:49;;;;;;;14.85;6.07;;;;;;;20.88;55.37;101182.00;10148453;29;20052;-78
2023/10/01 11:01:56;;;;;;;17.50;7.25;;;;;;;21.29;54.00;101184.66;10151594;29;20052;-78
2023/10/01 11:07:04;;;;;;;13.27;6.30;;;;;;;21.02;56.20;101188.63;10144834;29;20080;-78
2023/10/01 11:12:21;;;;;;;13.48;6.95;;;;;;;21.89;54.55;101175.88;10157778;29;20060;-78
2023/10/01 11:17:24;;;;;;;13.13;7.20;;;;;;;20.64;56.32;101171.94;10174745;29;20058;-78
2023/10/01 11:22:27;;;;;;;15.70;7.82;;;;;;;21.51;55.06;101163.06;10149252;29;20079;-78
2023/10/01 11:27:43;;;;;;;18.17;7.35;;;;;;;21.89;52.66;101169.56;10139988;29;20048;-78
2023/10/01 11:33:12;;;;;;;13.27;7.00;;;;;;;22.15;52.80;101160.16;10138554;29;20051;-77
2023/10/01 11:38:19;;;;;;;17.30;7.00;;;;;;;22.10;52.95;101166.16;10150475;28;20146;-77
2023/10/01 11:43:27;;;;;;;15.88;6.97;;;;;;;21.69;55.33;101141.78;10142722;29;20070;-77
2023/10/01 11:48:37;;;;;;;15.98;6.93;;;;;;;22.21;52.33;101143.84;10147486;28;20044;-77
2023/10/01 11:54:07;;;;;;;12.18;6.57;;;;;;;23.73;49.70;101125.31;10140830;28;20052;-77
2023/10/01 11:59:20;;;;;;;14.30;6.65;;;;;;;23.37;49.50;101128.03;10140045;28;20055;-78
2023/10/01 12:09:49;;;;;;;15.38;6.90;;;;;;;23.47;47.90;101130.47;10146945;29;20063;-77
2023/10/01 12:14:54;;;;;;;13.82;6.70;;;;;;;23.25;49.39;101122.19;10154976;28;20055;-79
2023/10/01 12:19:59;;;;;;;13.73;6.45;;;;;;;22.81;50.03;101114.78;10141230;29;20055;-79
2023/10/01 12:25:03;;;;;;;16.25;7.53;;;;;;;22.46;51.15;101114.44;10142665;29;20066;-78
2023/10/01 12:30:10;;;;;;;13.57;6.47;;;;;;;22.72;51.02;101104.94;10149880;29;20075;-78
2023/10/01 12:35:27;;;;;;;15.65;7.20;;;;;;;23.43;49.20;101106.19;10158036;28;20158;-78
2023/10/01 12:40:34;;;;;;;13.82;6.53;;;;;;;24.69;46.56;101100.31;10141838;28;20044;-78
2023/10/01 12:45:42;;;;;;;12.98;6.85;;;;;;;25.36;45.11;101098.78;10142697;28;20161;-78
2023/10/01 12:50:59;;;;;;;19.70;8.38;;;;;;;24.16;47.51;101097.91;10134466;29;20055;-78
2023/10/01 12:56:04;;;;;;;16.10;7.07;;;;;;;24.25;47.30;101082.19;10133399;29;20067;-79
2023/10/01 13:01:23;;;;;;;15.00;6.68;;;;;;;24.47;46.91;101077.53;10140133;29;20052;-78
2023/10/01 13:06:28;;;;;;;15.48;6.60;;;;;;;24.72;45.76;101081.50;10144264;29;20186;-78
2023/10/01 13:11:50;;;;;;;13.90;6.43;;;;;;;24.80;45.51;101071.41;10154508;29;20055;-78
2023/10/01 13:17:00;;;;;;;13.00;6.50;;;;;;;24.86;45.78;101071.44;10140039;29;20051;-78
2023/10/01 13:22:05;;;;;;;14.45;7.32;;;;;;;23.50;47.64;101067.88;10155745;29;20047;-79
2023/10/01 13:27:13;;;;;;;15.35;7.68;;;;;;;24.56;45.20;101076.31;10150730;29;20052;-78
2023/10/01 13:32:26;;;;;;;14.98;7.72;;;;;;;25.77;43.31;101062.97;10144484;29;20055;-79
2023/10/01 13:37:47;;;;;;;19.00;8.18;;;;;;;24.13;45.93;101067.28;10155258;29;20051;-80
2023/10/01 14:09:52;;;;;;;14.93;7.90;;;;;;;23.42;47.74;101029.59;10148634;29;20098;-78
2023/10/01 14:14:55;;;;;;;15.30;7.85;;;;;;;23.75;46.53;101029.97;10141732;29;20055;-78
2023/10/01 14:19:59;;;;;;;17.52;7.13;;;;;;;22.94;47.94;101030.06;10137060;29;20138;-80
2023/10/01 14:25:20;;;;;;;17.80;7.38;;;;;;;22.64;49.82;101040.16;10130378;29;20052;-78
2023/10/01 14:30:26;;;;;;;18.08;8.30;;;;;;;22.39;50.65;101014.91;10136161;29;20628;-76
2023/10/01 14:35:37;;;;;;;15.98;8.88;;;;;;;22.36;50.97;101015.28;10131970;29;20139;-78
2023/10/01 14:40:43;;;;;;;17.60;8.90;;;;;;;21.94;52.11;101010.38;10140848;29;20103;-80
2023/10/01 14:45:46;;;;;;;14.73;7.95;;;;;;;22.21;51.00;101006.19;10169355;29;20135;-80
2023/10/01 14:50:56;;;;;;;15.73;8.05;;;;;;;22.22;52.11;101003.28;10148577;29;20436;-79
2023/10/01 14:56:04;;;;;;;17.70;7.93;;;;;;;21.65;52.62;100999.13;10152703;29;20052;-79
2023/10/01 15:01:08;;;;;;;18.25;8.50;;;;;;;22.00;52.69;101001.44;10160392;29;20067;-78
2023/10/01 15:06:17;;;;;;;16.88;8.13;;;;;;;21.73;52.64;100995.47;10144241;29;20044;-78
2023/10/01 15:11:23;;;;;;;17.25;8.32;;;;;;;21.47;53.80;100997.72;10154693;29;20055;-81
2023/10/01 15:16:30;;;;;;;19.00;7.93;;;;;;;21.55;53.70;100990.31;10152332;29;20080;-81
2023/10/01 15:21:55;;;;;;;15.85;8.10;;;;;;;21.57;53.93;100992.88;10142930;29;20047;-79
2023/10/01 15:26:59;;;;;;;14.95;7.72;;;;;;;21.39;53.20;100988.56;10142422;29;20047;-78
2023/10/01 15:32:14;;;;;;;16.42;8.05;;;;;;;21.55;53.67;100992.19;10153145;29;20051;-78
2023/10/01 15:37:19;;;;;;;20.17;8.88;;;;;;;21.24;54.23;100990.34;10156875;29;20052;-79
2023/10/01 15:42:22;;;;;;;19.65;8.38;;;;;;;20.98;54.31;100996.09;10152687;29;20056;-79
2023/10/01 15:47:32;;;;;;;18.17;8.15;;;;;;;20.88;54.78;100995.47;10153195;29;20083;-80
2023/10/01 15:52:38;;;;;;;17.73;7.40;;;;;;;20.88;53.85;100981.81;10160909;29;20055;-80
2023/10/01 15:57:44;;;;;;;20.08;9.57;;;;;;;21.09;53.78;100984.81;10153959;29;20060;-80
2023/10/01 16:02:47;;;;;;;19.08;8.52;;;;;;;20.93;54.37;100990.34;10150239;29;20051;-78
2023/10/01 16:07:53;;;;;;;18.13;7.85;;;;;;;20.76;54.50;100978.59;10151892;29;20057;-80
2023/10/01 16:12:56;;;;;;;17.83;8.48;;;;;;;20.65;54.64;100982.59;10143466;29;21369;-79
2023/10/01 16:18:08;;;;;;;18.42;9.07;;;;;;;20.46;55.59;100963.88;10142424;29;20051;-80
2023/10/01 16:23:16;;;;;;;;;;;;;;;20.37;55.77;100971.25;10140785;29;20131;-80
2023/10/01 16:28:23;;;;;;;17.75;8.85;;;;;;;20.23;56.31;100975.50;10143942;29;20397;-78
2023/10/01 16:33:29;;;;;;;19.95;8.70;;;;;;;20.19;56.82;100984.22;10142106;29;20064;-79
2023/10/01 16:38:39;;;;;;;22.88;9.52;;;;;;;20.02;57.56;100988.81;10151958;29;20044;-78
2023/10/01 16:43:52;;;;;;;15.25;8.23;;;;;;;19.99;58.13;100994.63;10156530;28;20419;-78
2023/10/01 16:48:58;;;;;;;;;;;;;;;19.79;58.74;100985.94;10155084;28;20052;-78
2023/10/01 16:54:13;;;;;;;18.08;8.82;;;;;;;19.77;58.94;100991.56;10158521;28;20585;-78
2023/10/01 16:59:21;;;;;;;19.73;8.75;;;;;;;19.71;59.21;100985.94;10150463;28;20055;-78
2023/10/01 17:04:26;;;;;;;18.33;8.98;;;;;;;19.61;59.57;100984.25;10148767;29;20048;-78
2023/10/01 17:09:33;;;;;;;17.88;8.32;;;;;;;19.54;59.83;100975.00;10142125;29;20807;-78
2023/10/01 17:14:39;;;;;;;17.92;8.65;;;;;;;19.52;60.35;100987.94;10145929;29;20075;-79
2023/10/01 17:19:43;;;;;;;18.55;8.20;;;;;;;19.52;60.11;100982.47;10140021;29;20080;-78
2023/10/01 17:24:51;;;;;;;16.83;8.70;;;;;;;19.55;59.90;100973.13;10141502;29;20059;-78
2023/10/01 17:29:54;;;;;;;18.63;9.48;;;;;;;19.49;60.44;100977.38;10123197;29;20044;-78
2023/10/01 17:34:57;;;;;;;18.42;8.93;;;;;;;19.41;60.98;100977.38;10148141;29;20052;-78
2023/10/01 17:40:17;;;;;;;18.20;9.00;;;;;;;19.40;61.10;100971.06;10160111;29;20056;-78
2023/10/01 17:45:20;;;;;;;20.40;8.63;;;;;;;19.29;61.99;100976.00;10159603;28;21193;-78
2023/10/01 17:50:24;;;;;;;19.10;9.80;;;;;;;19.19;62.70;100978.84;10163320;28;20060;-78
2023/10/01 17:55:29;;;;;;;20.67;10.07;;;;;;;19.08;63.13;100979.16;10156461;28;20052;-78
2023/10/01 18:00:41;;;;;;;19.45;10.45;;;;;;;19.01;63.63;100981.72;10146731;29;20044;-78
2023/10/01 18:05:58;;;;;;;18.98;9.15;;;;;;;18.97;64.10;100981.16;10143719;28;20058;-77
2023/10/01 18:11:11;;;;;;;21.48;9.80;;;;;;;18.86;64.16;100977.91;10148898;29;20075;-78
2023/10/01 18:16:25;;;;;;;19.98;9.73;;;;;;;18.77;64.86;100987.88;10160074;29;20055;-77
2023/10/01 18:21:28;;;;;;;21.73;11.07;;;;;;;18.67;65.48;100988.00;10159453;29;20083;-78
2023/10/01 18:26:33;;;;;;;22.80;12.20;;;;;;;18.64;65.42;100993.75;10157041;29;20052;-78
2023/10/01 18:31:36;;;;;;;22.38;11.27;;;;;;;18.55;66.10;100992.88;10157133;28;20535;-77
2023/10/01 18:36:40;;;;;;;20.45;9.80;;;;;;;18.52;66.30;100986.91;10160556;28;20148;-77
2023/10/01 18:41:54;;;;;;;21.85;10.38;;;;;;;18.46;66.58;101001.16;10159265;28;20064;-78
2023/10/01 18:46:58;;;;;;;20.25;10.57;;;;;;;18.42;66.99;100995.16;10147474;29;20512;-80
2023/10/01 18:52:01;;;;;;;17.60;8.95;;;;;;;18.38;67.08;100996.53;10146036;29;20060;-78
2023/10/01 18:57:05;;;;;;;19.90;9.48;;;;;;;18.33;67.34;100988.84;10150478;29;21131;-78
2023/10/01 19:02:08;;;;;;;21.20;9.95;;;;;;;18.31;67.13;100984.56;10157568;29;20055;-77
2023/10/01 19:07:11;;;;;;;19.85;9.73;;;;;;;18.27;67.13;100991.34;10155589;28;20103;-78
2023/10/01 19:12:15;;;;;;;20.90;9.85;;;;;;;18.26;67.13;100979.59;10170447;28;20099;-79
2023/10/01 19:17:19;;;;;;;19.92;10.30;;;;;;;18.21;67.49;100983.81;10141670;29;21357;-77
2023/10/01 19:22:24;;;;;;;17.80;9.40;;;;;;;18.13;67.75;100982.75;10156028;28;20092;-78
2023/10/01 19:27:44;;;;;;;19.67;8.95;;;;;;;18.07;68.08;100982.53;10157493;29;20511;-78
2023/10/01 19:32:47;;;;;;;19.38;9.23;;;;;;;18.07;68.03;100985.25;10157511;28;20059;-77
2023/10/01 19:37:52;;;;;;;21.58;10.35;;;;;;;18.05;68.26;100982.72;10156208;28;20054;-78
2023/10/01 19:43:00;;;;;;;21.02;10.38;;;;;;;18.05;67.76;100976.41;10148308;28;20463;-76
2023/10/01 19:48:04;;;;;;;19.27;9.68;;;;;;;18.03;67.92;100978.44;10150918;28;20055;-78
2023/10/01 19:53:15;;;;;;;26.02;10.23;;;;;;;17.99;67.92;100977.03;10147122;29;20060;-77
2023/10/01 19:58:20;;;;;;;25.92;10.85;;;;;;;17.90;68.25;100974.22;10144399;29;20100;-77
2023/10/01 20:03:23;;;;;;;19.88;9.95;;;;;;;17.84;68.76;100974.84;10138642;29;20052;-77
2023/10/01 20:08:28;;;;;;;21.10;10.10;;;;;;;17.77;69.41;100968.38;10140216;29;20439;-78
2023/10/01 20:13:32;;;;;;;20.13;9.73;;;;;;;17.72;69.75;100962.56;10137862;29;21768;-78
2023/10/01 20:18:35;;;;;;;21.58;9.50;;;;;;;17.62;70.31;100969.94;10136397;29;20111;-77
2023/10/01 20:23:40;;;;;;;20.85;10.00;;;;;;;17.57;70.60;100954.09;10135473;29;20583;-77
2023/10/01 20:28:44;;;;;;;19.98;9.50;;;;;;;17.52;71.28;100961.00;10135713;29;20051;-77
2023/10/01 20:33:51;;;;;;;22.67;9.48;;;;;;;17.40;71.86;100953.09;10134373;29;20527;-77
2023/10/01 20:38:57;;;;;;;22.33;10.32;;;;;;;17.26;72.88;100961.78;10132975;29;20075;-78
2023/10/01 20:44:06;;;;;;;19.35;10.18;;;;;;;17.22;72.97;100963.06;10138326;29;20443;-77
2023/10/01 20:49:10;;;;;;;22.23;10.05;;;;;;;17.15;73.37;100967.44;10136778;29;20052;-78
2023/10/01 20:54:15;;;;;;;21.38;9.50;;;;;;;17.03;73.96;100964.91;10140901;29;20127;-77
2023/10/01 20:59:25;;;;;;;21.27;10.68;;;;;;;16.92;74.86;100966.94;10137248;29;20052;-78
2023/10/01 21:04:31;;;;;;;24.67;11.38;;;;;;;16.91;75.16;100955.25;10134561;29;20419;-78
2023/10/01 21:09:38;;;;;;;26.02;11.75;;;;;;;16.84;75.57;100954.16;10143259;29;20059;-77
2023/10/01 21:14:47;;;;;;;20.33;10.63;;;;;;;16.73;76.44;100952.50;10138479;29;20040;-79
2023/10/01 21:19:55;;;;;;;19.85;10.10;;;;;;;16.68;76.94;100953.97;10147545;29;20056;-77
2023/10/01 21:25:00;;;;;;;23.33;10.63;;;;;;;16.61;77.37;100951.00;10130265;29;20059;-78
2023/10/01 21:30:10;;;;;;;20.67;10.00;;;;;;;16.58;77.49;100957.56;10135677;29;20227;-78
2023/10/01 21:35:14;;;;;;;22.20;10.32;;;;;;;16.53;77.82;100949.03;10132321;29;20050;-77
2023/10/01 21:40:20;;;;;;;17.40;9.30;;;;;;;16.48;78.08;100947.75;10140186;29;20051;-77
2023/10/01 21:45:39;;;;;;;22.58;10.93;;;;;;;16.47;77.89;100951.50;10140062;29;20068;-78
2023/10/01 21:50:44;;;;;;;23.85;10.32;;;;;;;16.40;78.34;100945.81;10142456;29;20052;-77
2023/10/01 21:55:47;;;;;;;22.60;11.43;;;;;;;16.33;78.57;100950.13;10140181;29;20048;-76
2023/10/01 22:01:36;;;;;;;22.10;9.63;;;;;;;16.27;78.79;100946.16;10130804;29;20117;-77
2023/10/01 22:06:29;;;;;;;21.15;9.40;;;;;;;16.24;79.08;100950.97;10128107;29;20054;-77
2023/10/01 22:11:33;;;;;;;20.20;9.95;;;;;;;16.24;78.82;100937.44;10124374;29;21150;-76
2023/10/01 22:16:43;;;;;;;26.20;9.95;;;;;;;16.23;79.04;100957.38;10127868;29;20412;-77
2023/10/01 22:21:50;;;;;;;21.52;10.43;;;;;;;16.20;79.18;100939.56;10127474;29;20058;-77
2023/10/01 22:26:55;;;;;;;21.35;10.63;;;;;;;16.10;79.31;100945.03;10128476;29;20047;-76
2023/10/01 22:32:03;;;;;;;20.65;9.77;;;;;;;16.06;79.75;100950.88;10128859;29;20496;-76
2023/10/01 22:37:09;;;;;;;24.17;10.43;;;;;;;15.99;80.00;100949.75;10128793;29;20060;-77
2023/10/01 22:42:30;;;;;;;18.77;9.93;;;;;;;15.94;80.34;100955.63;10132700;29;20567;-76
2023/10/01 22:47:38;;;;;;;20.13;9.80;;;;;;;15.86;80.57;100945.50;10128701;29;20063;-77
2023/10/01 22:52:46;;;;;;;22.08;10.23;;;;;;;15.89;80.79;100936.22;10128476;29;20055;-77
2023/10/01 22:57:51;;;;;;;19.92;8.65;;;;;;;15.81;80.85;100936.94;10126745;29;20188;-77
2023/10/01 23:03:00;;;;;;;21.05;10.25;;;;;;;15.76;81.17;100932.97;10127431;29;20508;-77
2023/10/01 23:08:06;;;;;;;19.58;10.20;;;;;;;15.67;81.04;100924.72;10135032;29;20048;-77
2023/10/01 23:13:10;;;;;;;24.58;10.32;;;;;;;15.58;81.47;100927.44;10136435;29;20048;-77
2023/10/01 23:18:19;;;;;;;23.77;9.55;;;;;;;15.59;81.42;100932.69;10132389;29;20040;-76
2023/10/01 23:23:30;;;;;;;22.05;10.25;;;;;;;15.62;81.60;100935.13;10131294;29;20415;-76
2023/10/01 23:28:36;;;;;;;27.00;9.95;;;;;;;15.65;81.13;100931.25;10146193;29;20530;-77
2023/10/01 23:33:45;;;;;;;18.55;9.32;;;;;;;15.57;81.24;100937.41;10132228;29;20274;-76
2023/10/01 23:38:58;;;;;;;22.73;9.82;;;;;;;15.51;81.33;100934.41;10139299;29;20054;-76
2023/10/01 23:44:02;;;;;;;18.90;9.18;;;;;;;15.45;82.00;100939.41;10137467;29;20060;-76
2023/10/01 23:49:11;;;;;;;17.00;8.98;;;;;;;15.47;81.99;100948.25;10134051;29;20059;-77
2023/10/01 23:54:19;;;;;;;19.95;8.98;;;;;;;15.47;81.74;100952.81;10132162;29;20081;-77
2023/10/01 23:59:30;;;;;;;17.80;9.38;;;;;;;15.42;81.92;100953.22;10132255;29;20059;-77
